sensor_id;sensor_type;location;lat;lon;timestamp;P1;durP1;ratioP1;P2;durP2;ratioP2
7539;SDS011;3811;49.006;12.076;2022-12-07T00:00:51;6.07;;;4.87;;
7539;SDS011;3811;49.006;12.076;2022-12-07T00:03:20;6.23;;;4.73;;
7539;SDS011;3811;49.006;12.076;2022-12-07T00:05:47;5.70;;;4.93;;
7539;SDS011;3811;49.006;12.076;2022-12-07T00:08:14;5.50;;;4.67;;
7539;SDS011;3811;49.006;12.076;2022-12-07T00:10:41;6.33;;;4.70;;
7539;SDS011;3811;49.006;12.076;2022-12-07T00:13:09;5.60;;;4.57;;
7539;SDS011;3811;49.006;12.076;2022-12-07T00:15:36;5.57;;;4.60;;
7539;SDS011;3811;49.006;12.076;2022-12-07T00:18:03;5.00;;;4.50;;
7539;SDS011;3811;49.006;12.076;2022-12-07T00:20:32;6.10;;;4.83;;
7539;SDS011;3811;49.006;12.076;2022-12-07T00:22:59;6.77;;;5.17;;
7539;SDS011;3811;49.006;12.076;2022-12-07T00:25:26;6.17;;;4.87;;
7539;SDS011;3811;49.006;12.076;2022-12-07T00:27:53;6.57;;;5.47;;
7539;SDS011;3811;49.006;12.076;2022-12-07T00:30:21;5.33;;;4.57;;
7539;SDS011;3811;49.006;12.076;2022-12-07T00:32:49;6.73;;;5.20;;
7539;SDS011;3811;49.006;12.076;2022-12-07T00:35:16;5.57;;;4.60;;
7539;SDS011;3811;49.006;12.076;2022-12-07T00:37:45;6.07;;;4.60;;
7539;SDS011;3811;49.006;12.076;2022-12-07T00:40:12;5.83;;;4.50;;
7539;SDS011;3811;49.006;12.076;2022-12-07T00:42:40;5.93;;;4.70;;
7539;SDS011;3811;49.006;12.076;2022-12-07T00:45:08;4.90;;;4.40;;
7539;SDS011;3811;49.006;12.076;2022-12-07T00:47:35;5.57;;;4.83;;
7539;SDS011;3811;49.006;12.076;2022-12-07T00:50:02;5.20;;;4.70;;
7539;SDS011;3811;49.006;12.076;2022-12-07T00:52:30;6.80;;;4.73;;
7539;SDS011;3811;49.006;12.076;2022-12-07T00:54:58;5.10;;;4.37;;
7539;SDS011;3811;49.006;12.076;2022-12-07T00:57:25;5.73;;;4.90;;
7539;SDS011;3811;49.006;12.076;2022-12-07T00:59:53;5.50;;;4.83;;
7539;SDS011;3811;49.006;12.076;2022-12-07T01:02:22;5.60;;;5.00;;
7539;SDS011;3811;49.006;12.076;2022-12-07T01:04:50;5.50;;;4.90;;
7539;SDS011;3811;49.006;12.076;2022-12-07T01:07:17;5.97;;;5.37;;
7539;SDS011;3811;49.006;12.076;2022-12-07T01:09:44;6.23;;;4.93;;
7539;SDS011;3811;49.006;12.076;2022-12-07T01:12:13;5.20;;;4.43;;
7539;SDS011;3811;49.006;12.076;2022-12-07T01:14:41;5.27;;;4.63;;
7539;SDS011;3811;49.006;12.076;2022-12-07T01:17:08;5.17;;;4.67;;
7539;SDS011;3811;49.006;12.076;2022-12-07T01:19:35;5.53;;;5.03;;
7539;SDS011;3811;49.006;12.076;2022-12-07T01:22:02;6.17;;;5.10;;
7539;SDS011;3811;49.006;12.076;2022-12-07T01:24:30;5.10;;;4.50;;
7539;SDS011;3811;49.006;12.076;2022-12-07T01:26:57;6.97;;;5.40;;
7539;SDS011;3811;49.006;12.076;2022-12-07T01:29:25;6.27;;;5.00;;
7539;SDS011;3811;49.006;12.076;2022-12-07T01:31:53;6.23;;;5.10;;
7539;SDS011;3811;49.006;12.076;2022-12-07T01:34:20;7.00;;;5.53;;
7539;SDS011;3811;49.006;12.076;2022-12-07T01:36:47;6.63;;;4.60;;
7539;SDS011;3811;49.006;12.076;2022-12-07T01:39:14;5.67;;;4.43;;
7539;SDS011;3811;49.006;12.076;2022-12-07T01:41:42;4.53;;;3.63;;
7539;SDS011;3811;49.006;12.076;2022-12-07T01:44:20;4.50;;;4.10;;
7539;SDS011;3811;49.006;12.076;2022-12-07T01:46:50;4.53;;;4.03;;
7539;SDS011;3811;49.006;12.076;2022-12-07T01:49:21;4.70;;;3.97;;
7539;SDS011;3811;49.006;12.076;2022-12-07T01:51:54;4.77;;;4.10;;
7539;SDS011;3811;49.006;12.076;2022-12-07T01:54:25;5.67;;;4.23;;
7539;SDS011;3811;49.006;12.076;2022-12-07T01:56:53;5.00;;;4.50;;
7539;SDS011;3811;49.006;12.076;2022-12-07T01:59:22;4.30;;;3.90;;
7539;SDS011;3811;49.006;12.076;2022-12-07T02:01:53;5.80;;;4.30;;
7539;SDS011;3811;49.006;12.076;2022-12-07T02:04:21;4.67;;;3.93;;
7539;SDS011;3811;49.006;12.076;2022-12-07T02:06:49;5.10;;;4.47;;
7539;SDS011;3811;49.006;12.076;2022-12-07T02:09:17;4.73;;;4.20;;
7539;SDS011;3811;49.006;12.076;2022-12-07T02:11:45;4.77;;;4.13;;
7539;SDS011;3811;49.006;12.076;2022-12-07T02:14:12;4.63;;;4.07;;
7539;SDS011;3811;49.006;12.076;2022-12-07T02:16:42;5.70;;;5.03;;
7539;SDS011;3811;49.006;12.076;2022-12-07T02:22:32;7.63;;;5.23;;
7539;SDS011;3811;49.006;12.076;2022-12-07T02:25:19;5.57;;;5.00;;
7539;SDS011;3811;49.006;12.076;2022-12-07T02:27:52;5.40;;;4.87;;
7539;SDS011;3811;49.006;12.076;2022-12-07T02:30:28;5.23;;;4.53;;
7539;SDS011;3811;49.006;12.076;2022-12-07T02:32:59;5.23;;;4.70;;
7539;SDS011;3811;49.006;12.076;2022-12-07T02:35:30;5.87;;;4.97;;
7539;SDS011;3811;49.006;12.076;2022-12-07T02:38:02;5.93;;;5.33;;
7539;SDS011;3811;49.006;12.076;2022-12-07T02:40:36;8.33;;;6.10;;
7539;SDS011;3811;49.006;12.076;2022-12-07T02:43:07;7.43;;;5.77;;
7539;SDS011;3811;49.006;12.076;2022-12-07T02:45:40;6.13;;;5.50;;
7539;SDS011;3811;49.006;12.076;2022-12-07T02:48:09;7.20;;;5.80;;
7539;SDS011;3811;49.006;12.076;2022-12-07T02:50:44;5.90;;;5.17;;
7539;SDS011;3811;49.006;12.076;2022-12-07T02:56:01;5.23;;;4.60;;
7539;SDS011;3811;49.006;12.076;2022-12-07T02:58:36;5.23;;;4.60;;
7539;SDS011;3811;49.006;12.076;2022-12-07T03:01:15;5.07;;;4.13;;
7539;SDS011;3811;49.006;12.076;2022-12-07T03:03:57;6.07;;;5.00;;
7539;SDS011;3811;49.006;12.076;2022-12-07T03:06:33;6.87;;;5.20;;
7539;SDS011;3811;49.006;12.076;2022-12-07T03:09:09;6.03;;;4.87;;
7539;SDS011;3811;49.006;12.076;2022-12-07T03:11:41;5.57;;;4.97;;
7539;SDS011;3811;49.006;12.076;2022-12-07T03:14:13;6.80;;;4.90;;
7539;SDS011;3811;49.006;12.076;2022-12-07T03:16:47;6.10;;;5.03;;
7539;SDS011;3811;49.006;12.076;2022-12-07T03:19:19;7.23;;;6.03;;
7539;SDS011;3811;49.006;12.076;2022-12-07T03:21:49;7.73;;;5.77;;
7539;SDS011;3811;49.006;12.076;2022-12-07T03:24:19;6.87;;;6.17;;
7539;SDS011;3811;49.006;12.076;2022-12-07T03:26:48;8.10;;;6.30;;
7539;SDS011;3811;49.006;12.076;2022-12-07T03:29:20;9.20;;;7.17;;
7539;SDS011;3811;49.006;12.076;2022-12-07T03:31:53;8.73;;;6.37;;
7539;SDS011;3811;49.006;12.076;2022-12-07T03:34:26;8.40;;;6.43;;
7539;SDS011;3811;49.006;12.076;2022-12-07T03:36:59;8.37;;;6.47;;
7539;SDS011;3811;49.006;12.076;2022-12-07T03:39:31;9.23;;;6.67;;
7539;SDS011;3811;49.006;12.076;2022-12-07T03:42:03;8.10;;;6.53;;
7539;SDS011;3811;49.006;12.076;2022-12-07T03:44:32;9.30;;;7.27;;
7539;SDS011;3811;49.006;12.076;2022-12-07T03:47:02;8.97;;;6.70;;
7539;SDS011;3811;49.006;12.076;2022-12-07T03:49:32;8.37;;;6.63;;
7539;SDS011;3811;49.006;12.076;2022-12-07T03:52:08;8.33;;;6.53;;
7539;SDS011;3811;49.006;12.076;2022-12-07T03:54:39;8.83;;;6.93;;
7539;SDS011;3811;49.006;12.076;2022-12-07T03:57:13;9.17;;;7.00;;
7539;SDS011;3811;49.006;12.076;2022-12-07T03:59:41;11.80;;;8.33;;
7539;SDS011;3811;49.006;12.076;2022-12-07T04:02:11;8.63;;;6.63;;
7539;SDS011;3811;49.006;12.076;2022-12-07T04:04:39;8.10;;;6.20;;
7539;SDS011;3811;49.006;12.076;2022-12-07T04:07:07;11.00;;;7.27;;
7539;SDS011;3811;49.006;12.076;2022-12-07T04:09:34;10.07;;;7.60;;
7539;SDS011;3811;49.006;12.076;2022-12-07T04:12:01;11.67;;;7.53;;
7539;SDS011;3811;49.006;12.076;2022-12-07T04:14:29;9.73;;;7.03;;
7539;SDS011;3811;49.006;12.076;2022-12-07T04:16:57;9.90;;;7.50;;
7539;SDS011;3811;49.006;12.076;2022-12-07T04:19:26;9.53;;;6.97;;
7539;SDS011;3811;49.006;12.076;2022-12-07T04:21:54;8.43;;;6.53;;
7539;SDS011;3811;49.006;12.076;2022-12-07T04:24:22;8.53;;;7.37;;
7539;SDS011;3811;49.006;12.076;2022-12-07T04:26:49;9.53;;;8.03;;
7539;SDS011;3811;49.006;12.076;2022-12-07T04:29:17;9.37;;;7.27;;
7539;SDS011;3811;49.006;12.076;2022-12-07T04:31:44;9.47;;;7.50;;
7539;SDS011;3811;49.006;12.076;2022-12-07T04:34:11;10.67;;;7.43;;
7539;SDS011;3811;49.006;12.076;2022-12-07T04:36:40;8.93;;;7.27;;
7539;SDS011;3811;49.006;12.076;2022-12-07T04:39:09;12.07;;;7.43;;
7539;SDS011;3811;49.006;12.076;2022-12-07T04:41:44;9.40;;;7.60;;
7539;SDS011;3811;49.006;12.076;2022-12-07T04:44:11;8.60;;;6.87;;
7539;SDS011;3811;49.006;12.076;2022-12-07T04:46:40;8.93;;;7.57;;
7539;SDS011;3811;49.006;12.076;2022-12-07T04:49:07;11.03;;;7.73;;
7539;SDS011;3811;49.006;12.076;2022-12-07T04:51:35;10.77;;;8.30;;
7539;SDS011;3811;49.006;12.076;2022-12-07T04:54:04;9.67;;;7.33;;
7539;SDS011;3811;49.006;12.076;2022-12-07T04:56:31;8.93;;;6.93;;
7539;SDS011;3811;49.006;12.076;2022-12-07T04:59:00;9.97;;;7.57;;
7539;SDS011;3811;49.006;12.076;2022-12-07T05:01:27;9.87;;;7.30;;
7539;SDS011;3811;49.006;12.076;2022-12-07T05:03:55;11.80;;;7.83;;
7539;SDS011;3811;49.006;12.076;2022-12-07T05:06:22;9.93;;;7.57;;
7539;SDS011;3811;49.006;12.076;2022-12-07T05:08:49;9.70;;;7.17;;
7539;SDS011;3811;49.006;12.076;2022-12-07T05:11:18;10.50;;;6.97;;
7539;SDS011;3811;49.006;12.076;2022-12-07T05:14:03;11.73;;;7.20;;
7539;SDS011;3811;49.006;12.076;2022-12-07T05:16:31;11.20;;;7.80;;
7539;SDS011;3811;49.006;12.076;2022-12-07T05:18:58;11.37;;;7.93;;
7539;SDS011;3811;49.006;12.076;2022-12-07T05:21:26;11.97;;;7.47;;
7539;SDS011;3811;49.006;12.076;2022-12-07T05:23:53;12.30;;;8.13;;
7539;SDS011;3811;49.006;12.076;2022-12-07T05:26:22;10.53;;;7.23;;
7539;SDS011;3811;49.006;12.076;2022-12-07T05:28:52;11.03;;;7.73;;
7539;SDS011;3811;49.006;12.076;2022-12-07T05:31:20;10.73;;;7.93;;
7539;SDS011;3811;49.006;12.076;2022-12-07T05:33:47;9.10;;;7.53;;
7539;SDS011;3811;49.006;12.076;2022-12-07T05:36:14;11.90;;;8.30;;
7539;SDS011;3811;49.006;12.076;2022-12-07T05:38:42;11.80;;;7.87;;
7539;SDS011;3811;49.006;12.076;2022-12-07T05:41:11;10.73;;;7.90;;
7539;SDS011;3811;49.006;12.076;2022-12-07T05:43:55;12.43;;;7.97;;
7539;SDS011;3811;49.006;12.076;2022-12-07T05:46:22;13.30;;;8.47;;
7539;SDS011;3811;49.006;12.076;2022-12-07T05:48:50;11.63;;;7.97;;
7539;SDS011;3811;49.006;12.076;2022-12-07T05:51:17;11.03;;;8.20;;
7539;SDS011;3811;49.006;12.076;2022-12-07T05:53:44;13.37;;;8.70;;
7539;SDS011;3811;49.006;12.076;2022-12-07T05:56:12;11.27;;;8.33;;
7539;SDS011;3811;49.006;12.076;2022-12-07T05:58:38;14.50;;;9.67;;
7539;SDS011;3811;49.006;12.076;2022-12-07T06:01:25;24.53;;;13.13;;
7539;SDS011;3811;49.006;12.076;2022-12-07T06:03:52;35.80;;;17.67;;
7539;SDS011;3811;49.006;12.076;2022-12-07T06:06:20;20.20;;;13.33;;
7539;SDS011;3811;49.006;12.076;2022-12-07T06:08:47;12.73;;;8.90;;
7539;SDS011;3811;49.006;12.076;2022-12-07T06:11:14;13.57;;;9.70;;
7539;SDS011;3811;49.006;12.076;2022-12-07T06:13:59;15.97;;;10.23;;
7539;SDS011;3811;49.006;12.076;2022-12-07T06:16:28;17.00;;;10.80;;
7539;SDS011;3811;49.006;12.076;2022-12-07T06:18:55;12.97;;;9.30;;
7539;SDS011;3811;49.006;12.076;2022-12-07T06:21:22;21.37;;;9.70;;
7539;SDS011;3811;49.006;12.076;2022-12-07T06:23:50;18.43;;;11.57;;
7539;SDS011;3811;49.006;12.076;2022-12-07T06:26:18;15.70;;;10.17;;
7539;SDS011;3811;49.006;12.076;2022-12-07T06:28:45;14.93;;;9.73;;
7539;SDS011;3811;49.006;12.076;2022-12-07T06:31:12;15.27;;;9.03;;
7539;SDS011;3811;49.006;12.076;2022-12-07T06:33:41;13.10;;;9.63;;
7539;SDS011;3811;49.006;12.076;2022-12-07T06:36:09;16.23;;;10.50;;
7539;SDS011;3811;49.006;12.076;2022-12-07T06:38:37;15.20;;;9.27;;
7539;SDS011;3811;49.006;12.076;2022-12-07T06:41:04;15.03;;;10.00;;
7539;SDS011;3811;49.006;12.076;2022-12-07T06:43:32;17.43;;;11.30;;
7539;SDS011;3811;49.006;12.076;2022-12-07T06:45:59;13.10;;;9.57;;
7539;SDS011;3811;49.006;12.076;2022-12-07T06:48:26;17.80;;;10.30;;
7539;SDS011;3811;49.006;12.076;2022-12-07T06:50:55;20.07;;;11.57;;
7539;SDS011;3811;49.006;12.076;2022-12-07T06:53:22;28.97;;;14.57;;
7539;SDS011;3811;49.006;12.076;2022-12-07T06:55:50;22.90;;;11.73;;
7539;SDS011;3811;49.006;12.076;2022-12-07T06:58:17;19.97;;;13.13;;
7539;SDS011;3811;49.006;12.076;2022-12-07T07:00:44;25.70;;;13.60;;
7539;SDS011;3811;49.006;12.076;2022-12-07T07:03:12;21.87;;;14.07;;
7539;SDS011;3811;49.006;12.076;2022-12-07T07:05:39;19.43;;;12.23;;
7539;SDS011;3811;49.006;12.076;2022-12-07T07:08:08;20.73;;;11.53;;
7539;SDS011;3811;49.006;12.076;2022-12-07T07:10:35;16.97;;;10.30;;
7539;SDS011;3811;49.006;12.076;2022-12-07T07:13:03;18.97;;;10.90;;
7539;SDS011;3811;49.006;12.076;2022-12-07T07:15:30;21.80;;;11.57;;
7539;SDS011;3811;49.006;12.076;2022-12-07T07:17:58;16.47;;;10.47;;
7539;SDS011;3811;49.006;12.076;2022-12-07T07:20:25;14.60;;;9.80;;
7539;SDS011;3811;49.006;12.076;2022-12-07T07:22:53;20.23;;;12.63;;
7539;SDS011;3811;49.006;12.076;2022-12-07T07:25:22;15.00;;;9.90;;
7539;SDS011;3811;49.006;12.076;2022-12-07T07:27:49;15.27;;;10.63;;
7539;SDS011;3811;49.006;12.076;2022-12-07T07:30:17;16.77;;;11.13;;
7539;SDS011;3811;49.006;12.076;2022-12-07T07:32:44;16.47;;;10.33;;
7539;SDS011;3811;49.006;12.076;2022-12-07T07:35:11;18.07;;;10.67;;
7539;SDS011;3811;49.006;12.076;2022-12-07T07:37:39;19.07;;;10.53;;
7539;SDS011;3811;49.006;12.076;2022-12-07T07:40:07;14.53;;;9.17;;
7539;SDS011;3811;49.006;12.076;2022-12-07T07:42:36;11.47;;;8.83;;
7539;SDS011;3811;49.006;12.076;2022-12-07T07:45:03;14.20;;;9.13;;
7539;SDS011;3811;49.006;12.076;2022-12-07T07:47:31;13.47;;;8.57;;
7539;SDS011;3811;49.006;12.076;2022-12-07T07:49:58;15.50;;;9.10;;
7539;SDS011;3811;49.006;12.076;2022-12-07T07:52:26;14.87;;;9.40;;
7539;SDS011;3811;49.006;12.076;2022-12-07T07:54:53;15.93;;;9.37;;
7539;SDS011;3811;49.006;12.076;2022-12-07T07:57:20;15.23;;;9.40;;
7539;SDS011;3811;49.006;12.076;2022-12-07T07:59:49;14.80;;;9.87;;
7539;SDS011;3811;49.006;12.076;2022-12-07T08:02:17;13.27;;;9.30;;
7539;SDS011;3811;49.006;12.076;2022-12-07T08:04:45;13.87;;;8.90;;
7539;SDS011;3811;49.006;12.076;2022-12-07T08:07:14;13.37;;;8.67;;
7539;SDS011;3811;49.006;12.076;2022-12-07T08:09:41;13.07;;;8.43;;
7539;SDS011;3811;49.006;12.076;2022-12-07T08:12:08;12.67;;;8.37;;
7539;SDS011;3811;49.006;12.076;2022-12-07T08:14:36;12.93;;;8.60;;
7539;SDS011;3811;49.006;12.076;2022-12-07T08:17:05;11.40;;;8.37;;
7539;SDS011;3811;49.006;12.076;2022-12-07T08:19:32;11.83;;;8.37;;
7539;SDS011;3811;49.006;12.076;2022-12-07T08:21:59;12.80;;;8.83;;
7539;SDS011;3811;49.006;12.076;2022-12-07T08:24:27;13.00;;;8.40;;
7539;SDS011;3811;49.006;12.076;2022-12-07T08:26:54;11.07;;;8.80;;
7539;SDS011;3811;49.006;12.076;2022-12-07T08:29:21;12.63;;;8.87;;
7539;SDS011;3811;49.006;12.076;2022-12-07T08:31:49;12.70;;;8.40;;
7539;SDS011;3811;49.006;12.076;2022-12-07T08:34:17;11.93;;;8.87;;
7539;SDS011;3811;49.006;12.076;2022-12-07T08:36:44;12.07;;;8.27;;
7539;SDS011;3811;49.006;12.076;2022-12-07T08:39:12;10.13;;;7.43;;
7539;SDS011;3811;49.006;12.076;2022-12-07T08:41:39;10.80;;;7.23;;
7539;SDS011;3811;49.006;12.076;2022-12-07T08:44:06;10.70;;;6.87;;
7539;SDS011;3811;49.006;12.076;2022-12-07T08:46:34;8.23;;;6.90;;
7539;SDS011;3811;49.006;12.076;2022-12-07T08:49:05;8.63;;;6.87;;
7539;SDS011;3811;49.006;12.076;2022-12-07T08:51:35;10.30;;;7.33;;
7539;SDS011;3811;49.006;12.076;2022-12-07T08:54:04;10.37;;;6.90;;
7539;SDS011;3811;49.006;12.076;2022-12-07T08:56:35;10.83;;;8.17;;
7539;SDS011;3811;49.006;12.076;2022-12-07T08:59:02;12.67;;;7.73;;
7539;SDS011;3811;49.006;12.076;2022-12-07T09:01:30;11.43;;;8.03;;
7539;SDS011;3811;49.006;12.076;2022-12-07T09:03:58;10.70;;;7.03;;
7539;SDS011;3811;49.006;12.076;2022-12-07T09:06:25;11.10;;;7.73;;
7539;SDS011;3811;49.006;12.076;2022-12-07T09:08:54;10.27;;;7.27;;
7539;SDS011;3811;49.006;12.076;2022-12-07T09:11:24;13.03;;;8.50;;
7539;SDS011;3811;49.006;12.076;2022-12-07T09:13:51;11.03;;;6.87;;
7539;SDS011;3811;49.006;12.076;2022-12-07T09:16:18;11.73;;;7.40;;
7539;SDS011;3811;49.006;12.076;2022-12-07T09:18:46;10.17;;;6.67;;
7539;SDS011;3811;49.006;12.076;2022-12-07T09:21:13;9.83;;;6.97;;
7539;SDS011;3811;49.006;12.076;2022-12-07T09:23:40;9.63;;;5.77;;
7539;SDS011;3811;49.006;12.076;2022-12-07T09:26:09;10.23;;;6.80;;
7539;SDS011;3811;49.006;12.076;2022-12-07T09:28:37;8.60;;;7.03;;
7539;SDS011;3811;49.006;12.076;2022-12-07T09:31:05;11.37;;;6.70;;
7539;SDS011;3811;49.006;12.076;2022-12-07T09:33:32;9.30;;;6.43;;
7539;SDS011;3811;49.006;12.076;2022-12-07T09:36:00;11.50;;;6.87;;
7539;SDS011;3811;49.006;12.076;2022-12-07T09:38:27;10.77;;;7.83;;
7539;SDS011;3811;49.006;12.076;2022-12-07T09:40:56;9.87;;;7.30;;
7539;SDS011;3811;49.006;12.076;2022-12-07T09:43:25;11.60;;;7.67;;
7539;SDS011;3811;49.006;12.076;2022-12-07T09:45:53;12.23;;;7.73;;
7539;SDS011;3811;49.006;12.076;2022-12-07T09:48:22;9.10;;;6.80;;
7539;SDS011;3811;49.006;12.076;2022-12-07T09:50:55;11.53;;;7.80;;
7539;SDS011;3811;49.006;12.076;2022-12-07T09:53:25;8.83;;;6.77;;
7539;SDS011;3811;49.006;12.076;2022-12-07T09:55:54;10.90;;;7.37;;
7539;SDS011;3811;49.006;12.076;2022-12-07T09:58:22;10.27;;;7.57;;
7539;SDS011;3811;49.006;12.076;2022-12-07T10:00:52;11.67;;;7.77;;
7539;SDS011;3811;49.006;12.076;2022-12-07T10:03:22;10.43;;;7.50;;
7539;SDS011;3811;49.006;12.076;2022-12-07T10:05:50;9.77;;;6.50;;
7539;SDS011;3811;49.006;12.076;2022-12-07T10:08:18;9.53;;;6.30;;
7539;SDS011;3811;49.006;12.076;2022-12-07T10:10:48;12.07;;;7.97;;
7539;SDS011;3811;49.006;12.076;2022-12-07T10:13:18;10.23;;;6.97;;
7539;SDS011;3811;49.006;12.076;2022-12-07T10:15:47;8.50;;;6.53;;
7539;SDS011;3811;49.006;12.076;2022-12-07T10:18:20;10.20;;;6.50;;
7539;SDS011;3811;49.006;12.076;2022-12-07T10:20:59;9.30;;;6.53;;
7539;SDS011;3811;49.006;12.076;2022-12-07T10:23:28;8.30;;;6.00;;
7539;SDS011;3811;49.006;12.076;2022-12-07T10:25:55;10.63;;;6.33;;
7539;SDS011;3811;49.006;12.076;2022-12-07T10:28:23;10.30;;;6.23;;
7539;SDS011;3811;49.006;12.076;2022-12-07T10:30:51;10.83;;;6.97;;
7539;SDS011;3811;49.006;12.076;2022-12-07T10:33:30;9.17;;;6.93;;
7539;SDS011;3811;49.006;12.076;2022-12-07T10:35:58;9.70;;;5.93;;
7539;SDS011;3811;49.006;12.076;2022-12-07T10:38:26;9.37;;;6.40;;
7539;SDS011;3811;49.006;12.076;2022-12-07T10:41:02;7.60;;;6.30;;
7539;SDS011;3811;49.006;12.076;2022-12-07T10:43:30;8.60;;;5.77;;
7539;SDS011;3811;49.006;12.076;2022-12-07T10:48:50;10.17;;;6.03;;
7539;SDS011;3811;49.006;12.076;2022-12-07T10:51:26;6.83;;;5.60;;
7539;SDS011;3811;49.006;12.076;2022-12-07T10:53:59;7.53;;;5.50;;
7539;SDS011;3811;49.006;12.076;2022-12-07T10:56:41;10.33;;;5.67;;
7539;SDS011;3811;49.006;12.076;2022-12-07T10:59:17;7.63;;;5.20;;
7539;SDS011;3811;49.006;12.076;2022-12-07T11:01:49;7.57;;;6.03;;
7539;SDS011;3811;49.006;12.076;2022-12-07T11:04:23;8.23;;;5.33;;
7539;SDS011;3811;49.006;12.076;2022-12-07T11:06:53;5.53;;;4.57;;
7539;SDS011;3811;49.006;12.076;2022-12-07T11:09:29;7.00;;;4.83;;
7539;SDS011;3811;49.006;12.076;2022-12-07T11:12:23;8.87;;;4.90;;
7539;SDS011;3811;49.006;12.076;2022-12-07T11:14:53;7.23;;;5.47;;
7539;SDS011;3811;49.006;12.076;2022-12-07T11:17:26;7.67;;;5.40;;
7539;SDS011;3811;49.006;12.076;2022-12-07T11:20:04;5.37;;;4.57;;
7539;SDS011;3811;49.006;12.076;2022-12-07T11:22:47;8.27;;;4.73;;
7539;SDS011;3811;49.006;12.076;2022-12-07T11:25:24;8.07;;;4.23;;
7539;SDS011;3811;49.006;12.076;2022-12-07T11:28:01;6.87;;;4.60;;
7539;SDS011;3811;49.006;12.076;2022-12-07T11:30:41;7.50;;;5.57;;
7539;SDS011;3811;49.006;12.076;2022-12-07T11:33:17;4.90;;;3.90;;
7539;SDS011;3811;49.006;12.076;2022-12-07T11:35:51;7.27;;;5.33;;
7539;SDS011;3811;49.006;12.076;2022-12-07T11:38:30;5.73;;;4.63;;
7539;SDS011;3811;49.006;12.076;2022-12-07T11:41:00;5.73;;;4.67;;
7539;SDS011;3811;49.006;12.076;2022-12-07T11:43:41;6.03;;;4.60;;
7539;SDS011;3811;49.006;12.076;2022-12-07T11:46:11;6.10;;;4.23;;
7539;SDS011;3811;49.006;12.076;2022-12-07T11:48:41;6.33;;;4.57;;
7539;SDS011;3811;49.006;12.076;2022-12-07T11:51:13;5.50;;;4.23;;
7539;SDS011;3811;49.006;12.076;2022-12-07T11:53:43;7.00;;;4.20;;
7539;SDS011;3811;49.006;12.076;2022-12-07T11:56:15;5.97;;;3.93;;
7539;SDS011;3811;49.006;12.076;2022-12-07T11:58:46;6.10;;;4.53;;
7539;SDS011;3811;49.006;12.076;2022-12-07T12:01:19;5.80;;;4.27;;
7539;SDS011;3811;49.006;12.076;2022-12-07T12:04:01;4.93;;;4.40;;
7539;SDS011;3811;49.006;12.076;2022-12-07T12:06:35;6.73;;;5.00;;
7539;SDS011;3811;49.006;12.076;2022-12-07T12:09:03;5.63;;;4.27;;
7539;SDS011;3811;49.006;12.076;2022-12-07T12:11:39;4.70;;;3.67;;
7539;SDS011;3811;49.006;12.076;2022-12-07T12:17:22;5.33;;;3.87;;
7539;SDS011;3811;49.006;12.076;2022-12-07T12:20:15;6.10;;;4.47;;
7539;SDS011;3811;49.006;12.076;2022-12-07T12:22:47;6.20;;;4.37;;
7539;SDS011;3811;49.006;12.076;2022-12-07T12:25:20;5.33;;;3.80;;
7539;SDS011;3811;49.006;12.076;2022-12-07T12:27:48;6.87;;;4.67;;
7539;SDS011;3811;49.006;12.076;2022-12-07T12:30:24;6.07;;;4.10;;
7539;SDS011;3811;49.006;12.076;2022-12-07T12:32:52;5.83;;;4.37;;
7539;SDS011;3811;49.006;12.076;2022-12-07T12:35:21;5.30;;;3.80;;
7539;SDS011;3811;49.006;12.076;2022-12-07T12:38:01;6.00;;;4.40;;
7539;SDS011;3811;49.006;12.076;2022-12-07T12:40:44;5.20;;;3.90;;
7539;SDS011;3811;49.006;12.076;2022-12-07T12:48:40;5.83;;;4.40;;
7539;SDS011;3811;49.006;12.076;2022-12-07T12:54:04;6.77;;;4.37;;
7539;SDS011;3811;49.006;12.076;2022-12-07T12:56:38;6.60;;;4.93;;
7539;SDS011;3811;49.006;12.076;2022-12-07T13:02:20;8.00;;;5.30;;
7539;SDS011;3811;49.006;12.076;2022-12-07T13:04:53;5.73;;;4.43;;
7539;SDS011;3811;49.006;12.076;2022-12-07T13:10:23;8.93;;;6.27;;
7539;SDS011;3811;49.006;12.076;2022-12-07T13:13:22;10.00;;;6.83;;
7539;SDS011;3811;49.006;12.076;2022-12-07T13:15:54;7.57;;;4.93;;
7539;SDS011;3811;49.006;12.076;2022-12-07T13:18:23;7.63;;;5.43;;
7539;SDS011;3811;49.006;12.076;2022-12-07T13:20:52;6.33;;;5.00;;
7539;SDS011;3811;49.006;12.076;2022-12-07T13:23:27;9.97;;;5.40;;
7539;SDS011;3811;49.006;12.076;2022-12-07T13:26:15;7.23;;;4.63;;
7539;SDS011;3811;49.006;12.076;2022-12-07T13:28:44;9.00;;;5.40;;
7539;SDS011;3811;49.006;12.076;2022-12-07T13:31:32;9.33;;;5.40;;
7539;SDS011;3811;49.006;12.076;2022-12-07T13:34:00;9.60;;;5.23;;
7539;SDS011;3811;49.006;12.076;2022-12-07T13:36:29;5.63;;;4.63;;
7539;SDS011;3811;49.006;12.076;2022-12-07T13:39:10;8.97;;;4.53;;
7539;SDS011;3811;49.006;12.076;2022-12-07T13:41:44;7.37;;;4.60;;
7539;SDS011;3811;49.006;12.076;2022-12-07T13:44:12;5.93;;;4.47;;
7539;SDS011;3811;49.006;12.076;2022-12-07T13:46:47;5.53;;;4.10;;
7539;SDS011;3811;49.006;12.076;2022-12-07T13:49:20;7.50;;;5.00;;
7539;SDS011;3811;49.006;12.076;2022-12-07T13:51:48;9.77;;;4.63;;
7539;SDS011;3811;49.006;12.076;2022-12-07T13:54:16;6.77;;;4.50;;
7539;SDS011;3811;49.006;12.076;2022-12-07T13:56:43;6.67;;;4.47;;
7539;SDS011;3811;49.006;12.076;2022-12-07T13:59:13;7.63;;;4.73;;
7539;SDS011;3811;49.006;12.076;2022-12-07T14:01:42;5.73;;;4.23;;
7539;SDS011;3811;49.006;12.076;2022-12-07T14:04:26;5.57;;;4.40;;
7539;SDS011;3811;49.006;12.076;2022-12-07T14:06:55;7.67;;;4.87;;
7539;SDS011;3811;49.006;12.076;2022-12-07T14:09:23;6.10;;;4.00;;
7539;SDS011;3811;49.006;12.076;2022-12-07T14:11:51;8.03;;;4.87;;
7539;SDS011;3811;49.006;12.076;2022-12-07T14:14:20;9.13;;;5.10;;
7539;SDS011;3811;49.006;12.076;2022-12-07T14:16:56;5.73;;;4.60;;
7539;SDS011;3811;49.006;12.076;2022-12-07T14:19:42;5.43;;;4.20;;
7539;SDS011;3811;49.006;12.076;2022-12-07T14:22:18;9.73;;;6.23;;
7539;SDS011;3811;49.006;12.076;2022-12-07T14:24:45;7.10;;;4.83;;
7539;SDS011;3811;49.006;12.076;2022-12-07T14:27:16;9.00;;;4.73;;
7539;SDS011;3811;49.006;12.076;2022-12-07T14:29:45;7.17;;;4.57;;
7539;SDS011;3811;49.006;12.076;2022-12-07T14:32:17;8.40;;;4.40;;
7539;SDS011;3811;49.006;12.076;2022-12-07T14:34:56;6.27;;;4.63;;
7539;SDS011;3811;49.006;12.076;2022-12-07T14:37:24;6.97;;;5.53;;
7539;SDS011;3811;49.006;12.076;2022-12-07T14:39:51;5.13;;;4.20;;
7539;SDS011;3811;49.006;12.076;2022-12-07T14:42:19;7.40;;;5.00;;
7539;SDS011;3811;49.006;12.076;2022-12-07T14:44:46;9.30;;;5.93;;
7539;SDS011;3811;49.006;12.076;2022-12-07T14:47:13;7.97;;;5.37;;
7539;SDS011;3811;49.006;12.076;2022-12-07T14:49:41;7.80;;;5.37;;
7539;SDS011;3811;49.006;12.076;2022-12-07T14:52:11;7.80;;;5.33;;
7539;SDS011;3811;49.006;12.076;2022-12-07T14:54:41;7.87;;;4.87;;
7539;SDS011;3811;49.006;12.076;2022-12-07T14:57:09;7.07;;;4.50;;
7539;SDS011;3811;49.006;12.076;2022-12-07T14:59:36;9.00;;;5.63;;
7539;SDS011;3811;49.006;12.076;2022-12-07T15:02:04;9.90;;;5.67;;
7539;SDS011;3811;49.006;12.076;2022-12-07T15:04:31;6.37;;;4.93;;
7539;SDS011;3811;49.006;12.076;2022-12-07T15:06:59;5.10;;;4.17;;
7539;SDS011;3811;49.006;12.076;2022-12-07T15:09:28;5.63;;;4.50;;
7539;SDS011;3811;49.006;12.076;2022-12-07T15:11:56;5.80;;;4.20;;
7539;SDS011;3811;49.006;12.076;2022-12-07T15:14:23;8.23;;;4.50;;
7539;SDS011;3811;49.006;12.076;2022-12-07T15:16:50;11.53;;;5.53;;
7539;SDS011;3811;49.006;12.076;2022-12-07T15:19:18;6.77;;;5.00;;
7539;SDS011;3811;49.006;12.076;2022-12-07T15:21:47;5.83;;;4.43;;
7539;SDS011;3811;49.006;12.076;2022-12-07T15:24:15;5.83;;;5.00;;
7539;SDS011;3811;49.006;12.076;2022-12-07T15:26:44;5.83;;;4.23;;
7539;SDS011;3811;49.006;12.076;2022-12-07T15:29:11;7.10;;;4.80;;
7539;SDS011;3811;49.006;12.076;2022-12-07T15:31:40;6.30;;;5.10;;
7539;SDS011;3811;49.006;12.076;2022-12-07T15:34:07;6.60;;;5.03;;
7539;SDS011;3811;49.006;12.076;2022-12-07T15:36:34;7.00;;;5.27;;
7539;SDS011;3811;49.006;12.076;2022-12-07T15:39:02;15.00;;;4.83;;